Home > Products > Valid Products > TAF

000
FTUS44 KLUB 222200 AAC
TAFCDS
TAF AMD
KCDS 222223Z 2222/2318 16009KT P6SM BKN060
      TEMPO 2222/2223 BKN007
     FM230200 15005KT P6SM BKN060
     FM231400 19008KT P6SM FEW060=



000
FTUS44 KLUB 222100 AAC
TAFLBB
TAF AMD
KLBB 222146Z 2222/2318 16011KT P6SM BKN017 BKN035 OVC200
     FM222300 16005KT P6SM SCT040 SCT060 BKN200
     FM230700 20007KT 5SM BR SCT060
     FM231500 22010KT P6SM FEW060=



000
FTUS44 KLUB 222000 AAB
TAFLBB
TAF AMD
KLBB 222003Z 2220/2318 18011KT P6SM VCSH BKN017 BKN035 OVC200
      TEMPO 2220/2222 SCT017
     FM222200 16005KT P6SM SCT040 SCT060 BKN200
     FM230700 20007KT 5SM BR SCT060
     FM231500 22010KT P6SM FEW060=



000
FTUS44 KLUB 221900 AAB
TAFCDS
TAF AMD
KCDS 221928Z 2219/2318 20008KT 5SM -SHRA BKN030 OVC050
     FM222000 18011KT P6SM BKN060 BKN100
     FM230200 15005KT P6SM BKN060
     FM231400 19008KT P6SM FEW060=



000
FTUS44 KLUB 221800 AAA
TAFCDS
TAF AMD
KCDS 221829Z 2218/2318 20008KT 5SM -SHRA BKN030 OVC050
      TEMPO 2218/2220 2SM SHRA BKN025
     FM222000 18011KT P6SM BKN060 BKN100
     FM230200 15005KT P6SM BKN060
     FM231400 19008KT P6SM FEW060=



000
FTUS44 KLUB 221800 AAA
TAFLBB
TAF AMD
KLBB 221828Z 2218/2318 18011KT P6SM VCSH SCT017 BKN030 OVC040
     FM222000 16005KT P6SM SCT040 SCT060
     FM230700 20007KT 5SM BR SCT060
     FM231500 22010KT P6SM FEW060=



000
FTUS44 KLUB 221700
TAFLBB
TAF
KLBB 221724Z 2218/2318 18011KT P6SM SCT015 BKN040 BKN150
     FM222000 16005KT P6SM SCT040 SCT060
     FM230700 20007KT 5SM BR SCT060
     FM231500 22010KT P6SM FEW060=



000
FTUS44 KLUB 221700
TAFCDS
TAF
KCDS 221724Z 2218/2318 20008KT P6SM -SHRA BKN030 OVC050
      TEMPO 2218/2220 2SM SHRA BKN025
     FM222000 18011KT P6SM BKN060 BKN100
     FM230200 15005KT P6SM BKN060
     FM231400 19008KT P6SM FEW060=



000
FTUS44 KLUB 221700
TAFCDS
TAF
KCDS 221724Z 2218/2318 20008KT P6SM -SHRA BKN030 OVC050
      TEMPO 2218/2220 2SM SHRA BKN025
     FM222000 18011KT P6SM BKN060 BKN100
     FM230200 15005KT P6SM BKN060
     FM231400 19008KT P6SM FEW060=



000
FTUS44 KLUB 221700
TAFLBB
TAF
KLBB 221724Z 2218/2318 18011KT P6SM SCT015 BKN040 BKN150
     FM222000 16005KT P6SM SCT040 SCT060
     FM230700 20007KT 5SM BR SCT060
     FM231500 22010KT P6SM FEW060=



000
FTUS44 KLUB 221700 AAA
TAFCDS
TAF AMD
KCDS 221715Z 2217/2312 20008KT P6SM -SHRA BKN030 OVC050
      TEMPO 2217/2220 5SM -SHRA BKN025
     FM222000 18011KT P6SM BKN040 BKN100
     FM230200 18005KT P6SM SCT040 BKN100=



000
FTUS44 KLUB 221700 AAA
TAFCDS
TAF AMD
KCDS 221715Z 2217/2312 20008KT P6SM -SHRA BKN030 OVC050
      TEMPO 2217/2220 5SM -SHRA BKN025
     FM222000 18011KT P6SM BKN040 BKN100
     FM230200 18005KT P6SM SCT040 BKN100=



000
FTUS44 KLUB 221500 CCB
TAFLBB
TAF COR
KLBB 221553Z 2216/2312 16008KT 4SM BR SCT006 BKN016 OVC035
      TEMPO 2216/2217 5SM -SHRA BR SCT016 OVC025
     FM221700 18009KT P6SM BKN015 BKN150
     FM222000 16005KT P6SM SCT040 SCT100=



000
FTUS44 KLUB 221500 AAF
TAFLBB
TAF AMD
KLBB 221547Z 2216/2312 16008KT 4SM BR SCT006 BKN024 OVC035
      TEMPO 2216/2217 5SM -SHRA BR SCT025 OVC035
     FM221700 18009KT P6SM BKN015 BKN150
     FM222000 16005KT P6SM SCT040 SCT100=



000
FTUS44 KLUB 221500 AAE
TAFLBB
TAF AMD
KLBB 221521Z 2215/2312 16008KT 5SM BR SCT005 BKN030 OVC070
      TEMPO 2215/2217 3SM -SHRA BR BKN005
     FM221700 18009KT P6SM BKN015 BKN150
     FM222000 16005KT P6SM SCT040 SCT100=



000
FTUS44 KLUB 221300 AAD
TAFLBB
TAF AMD
KLBB 221332Z 2214/2312 16008KT P6SM BKN030 BKN040 OVC060
      TEMPO 2214/2215 3SM -SHRA BR
     FM221700 18009KT P6SM BKN015 BKN150
     FM222000 16005KT P6SM SCT040 SCT100=



000
FTUS44 KLUB 221200 AAC
TAFLBB
TAF AMD
KLBB 221227Z 2212/2312 16008KT P6SM BKN040 BKN050 BKN250
      TEMPO 2212/2214 3SM -SHRA BR
     FM221700 18009KT P6SM BKN015 BKN150
     FM222000 16005KT P6SM SCT040 SCT100=



000
FTUS44 KLUB 221200 CCA
TAFLBB
TAF COR
KLBB 221220Z 2212/2312 16008KT P6SM BKN040 BKN050 BKN250
      TEMPO 2212/2214 2SM -SHRA BR
     FM221700 18009KT P6SM BKN015 BKN150
     FM222000 16005KT P6SM SCT040 SCT100=



000
FTUS44 KLUB 221200 AAB
TAFLBB
TAF AMD
KLBB 221219Z 2212/2312 16008KT P6SM BKN040 BKN050 BKN250
      TEMPO 2212/2213 2SM -SHRA BR
     FM221700 18009KT P6SM BKN015 BKN150
     FM222000 16005KT P6SM SCT040 SCT100=



000
FTUS44 KLUB 221100 AAA
TAFLBB
TAF AMD
KLBB 221151Z 2212/2312 16008KT P6SM BKN040 BKN050 BKN250
      TEMPO 2212/2213 3SM -SHRA
     FM221700 18009KT P6SM BKN015 BKN150
     FM222000 16005KT P6SM SCT040 SCT100=



000
FTUS44 KLUB 221100
TAFCDS
TAF
KCDS 221126Z 2212/2312 18008KT P6SM BKN090
     FM221400 18011KT P6SM -SHRA BKN030 BKN100
     FM221700 18011KT P6SM BKN040 BKN100
     FM230200 18005KT P6SM SCT040 BKN100=



000
FTUS44 KLUB 221100
TAFLBB
TAF
KLBB 221126Z 2212/2312 16008KT P6SM BKN040 BKN050 BKN250
      TEMPO 2212/2213 P6SM -SHRA
     FM221700 18009KT P6SM BKN015 BKN150
     FM222000 16005KT P6SM SCT040 SCT100=



000
FTUS44 KLUB 221000 AAD
TAFLBB
TAF AMD
KLBB 221044Z 2211/2306 16008KT P6SM BKN040 BKN150 BKN250
      TEMPO 2211/2213 P6SM -RA BKN010
     FM222000 18005KT P6SM SCT040 SCT100=



000
FTUS44 KLUB 221000 AAC
TAFLBB
TAF AMD
KLBB 221001Z 2210/2306 16008KT P6SM BKN040 BKN150 BKN250
      TEMPO 2210/2213 P6SM -RA
     FM222000 18005KT P6SM SCT040 SCT100=



000
FTUS44 KLUB 221000 AAC
TAFLBB
TAF AMD
KLBB 221001Z 2210/2306 16008KT P6SM BKN040 BKN150 BKN250
      TEMPO 2210/2213 P6SM -RA
     FM222000 18005KT P6SM SCT040 SCT100=



000
FTUS44 KLUB 220900 CCA
TAFLBB
TAF COR
KLBB 220908Z 2209/2306 16008KT P6SM BKN060 BKN150 BKN250
     FM221200 18011KT P6SM VCSH OVC020
     FM222000 18005KT P6SM SCT040 SCT100=



000
FTUS44 KLUB 220900 AAA
TAFLBB
TAF AMD
KLBB 220907Z 2209/2306 16008KT P6SM BKN060 BKN150 BKN250
     FM221200 17008KT P6SM BKN020 OVC100
     FM221400 18011KT P6SM VCSH OVC020
     FM222000 18005KT P6SM SCT040 SCT100=



000
FTUS44 KLUB 220900 AAB
TAFLBB
TAF AMD
KLBB 220907Z 2209/2306 16008KT P6SM BKN060 BKN150 BKN250
     FM221400 18011KT P6SM VCSH OVC020
     FM222000 18005KT P6SM SCT040 SCT100=



000
FTUS44 KLUB 220500
TAFCDS
TAF
KCDS 220520Z 2206/2306 17008KT P6SM FEW150
     FM221000 18008KT P6SM BKN100
     FM221800 18011KT P6SM BKN040 BKN100 PROB30 2218/2224 5SM -TSRA
      OVC040CB
     FM230000 18005KT P6SM SCT040 BKN100=



000
FTUS44 KLUB 220500
TAFLBB
TAF
KLBB 220520Z 2206/2306 16008KT P6SM BKN060 BKN150 BKN250
     FM221000 17008KT P6SM BKN020 OVC100
     FM221400 18011KT P6SM VCSH OVC020
     FM222000 18005KT P6SM SCT040 SCT100=



000
FTUS44 KLUB 220500
TAFLBB
TAF
KLBB 220520Z 2206/2306 16008KT P6SM BKN060 BKN150 BKN250
     FM221000 17008KT P6SM BKN020 OVC100
     FM221400 18011KT P6SM VCSH OVC020
     FM222000 18005KT P6SM SCT040 SCT100=



000
FTUS44 KLUB 220500
TAFCDS
TAF
KCDS 220520Z 2206/2306 17008KT P6SM FEW150
     FM221000 18008KT P6SM BKN100
     FM221800 18011KT P6SM BKN040 BKN100 PROB30 2218/2224 5SM -TSRA
      OVC040CB
     FM230000 18005KT P6SM SCT040 BKN100=



000
FTUS44 KLUB 212300
TAFCDS
TAF
KCDS 212325Z 2200/2224 17010KT P6SM FEW150
     FM221600 18011KT P6SM BKN040 BKN150 PROB30 2218/2224 5SM -TSRA
      OVC040CB=



000
FTUS44 KLUB 212300
TAFLBB
TAF
KLBB 212325Z 2200/2224 15010KT P6SM BKN060 BKN150 BKN250
     FM221000 21008KT P6SM BKN030 BKN100 PROB30 2214/2220 5SM -TSRA
      OVC020CB
     FM222000 VRB05KT P6SM BKN040 BKN100=



000
FTUS44 KLUB 212300
TAFLBB
TAF
KLBB 212325Z 2200/2224 15010KT P6SM BKN060 BKN150 BKN250
     FM221000 21008KT P6SM BKN030 BKN100 PROB30 2214/2220 5SM -TSRA
      OVC020CB
     FM222000 VRB05KT P6SM BKN040 BKN100=



000
FTUS44 KLUB 212300
TAFCDS
TAF
KCDS 212325Z 2200/2224 17010KT P6SM FEW150
     FM221600 18011KT P6SM BKN040 BKN150 PROB30 2218/2224 5SM -TSRA
      OVC040CB=



000
FTUS44 KLUB 211700
TAFLBB
TAF
KLBB 211724Z 2118/2218 17008KT P6SM SCT050
     FM221000 21008KT P6SM SCT030 BKN100=



000
FTUS44 KLUB 211700
TAFCDS
TAF
KCDS 211724Z 2118/2218 16008KT P6SM SCT060=



000
FTUS44 KLUB 211100
TAFLBB
TAF
KLBB 211120Z 2112/2212 17008KT P6SM SCT060=



000
FTUS44 KLUB 211100
TAFCDS
TAF
KCDS 211120Z 2112/2212 16008KT P6SM SCT080=



000
FTUS44 KLUB 211100
TAFLBB
TAF
KLBB 211120Z 2112/2212 17008KT P6SM SCT060=



000
FTUS44 KLUB 211100
TAFCDS
TAF
KCDS 211120Z 2112/2212 16008KT P6SM SCT080=



000
FTUS44 KLUB 210500
TAFLBB
TAF
KLBB 210520Z 2106/2206 VRB06KT P6SM SCT180
     FM211000 VRB06KT P6SM BKN040
     FM211700 17010KT P6SM SCT050=



000
FTUS44 KLUB 210500
TAFCDS
TAF
KCDS 210520Z 2106/2206 17005KT P6SM FEW080
     FM211200 21006KT P6SM SCT050=



000
FTUS44 KLUB 202300
TAFLBB
TAF
KLBB 202326Z 2100/2124 VRB06KT P6SM SCT180
     FM211700 17010KT P6SM SCT040=



000
FTUS44 KLUB 202300
TAFCDS
TAF
KCDS 202326Z 2100/2124 17005KT P6SM SCT200=



000
FTUS44 KLUB 201700
TAFCDS
TAF
KCDS 201720Z 2018/2118 24007KT P6SM SCT150
     FM210000 18005KT P6SM SCT200=



000
FTUS44 KLUB 201700
TAFLBB
TAF
KLBB 201720Z 2018/2118 24005KT P6SM SCT150
     FM202100 VRB06KT P6SM FEW040 BKN180=



000
FTUS44 KLUB 201400 AAD
TAFLBB
TAF AMD
KLBB 201428Z 2014/2112 VRB05KT P6SM FEW250
     FM202100 VRB06KT P6SM FEW040 BKN180=



000
FTUS44 KLUB 201200 AAC
TAFLBB
TAF AMD
KLBB 201218Z 2012/2112 VRB05KT 6SM BR FEW025 SCT200
      TEMPO 2012/2014 1SM BR
     FM201500 16005KT P6SM SCT035 BKN050 BKN150
     FM211000 VRB06KT P6SM FEW030 BKN180=



000
FTUS44 KLUB 201200 AAB
TAFLBB
TAF AMD
KLBB 201200Z 2012/2112 VRB05KT 6SM BR FEW025 SCT200
     FM201500 16005KT P6SM SCT035 BKN050 BKN150
     FM211000 VRB06KT P6SM FEW030 BKN180=



000
FTUS44 KLUB 201100 AAA
TAFLBB
TAF AMD
KLBB 201140Z 2012/2112 VRB05KT 1SM BR FEW025 BKN110
     FM201500 16005KT P6SM SCT035 BKN050 BKN150
     FM211000 VRB06KT P6SM FEW030 BKN180=



000
FTUS44 KLUB 201100
TAFLBB
TAF
KLBB 201120Z 2012/2112 VRB05KT 3SM BR FEW025 BKN110
     FM201500 16005KT P6SM SCT035 BKN050 BKN150
     FM211000 VRB06KT P6SM FEW030 BKN180=



000
FTUS44 KLUB 201100
TAFCDS
TAF
KCDS 201120Z 2012/2112 21005KT 6SM BR BKN040
     FM201600 18006KT P6SM SCT050 SCT200=



000
FTUS44 KLUB 201000 AAA
TAFLBB
TAF AMD
KLBB 201004Z 2010/2106 17008KT 5SM BR SCT030 BKN120
     FM201100 25005KT 2SM BR BKN025 BKN110
     FM201500 VRB05KT P6SM SCT035 BKN300=



000
FTUS44 KLUB 201000 AAA
TAFLBB
TAF AMD
KLBB 201004Z 2010/2106 17008KT 5SM BR SCT030 BKN120
     FM201100 25005KT 2SM BR BKN025 BKN110
     FM201500 VRB05KT P6SM SCT035 BKN300=



000
FTUS44 KLUB 200500
TAFLBB
TAF
KLBB 200520Z 2006/2106 17008KT P6SM SCT030 BKN120
     FM201000 25005KT 2SM BR BKN025 BKN110
     FM201500 VRB05KT P6SM SCT035 BKN300=



000
FTUS44 KLUB 200500
TAFCDS
TAF
KCDS 200520Z 2006/2106 20008KT P6SM SCT030 SCT110 BKN250
     FM200900 23005KT 6SM BR BKN040 BKN250
     FM201800 27008KT P6SM SCT040=



000
FTUS44 KLUB 192300
TAFLBB
TAF
KLBB 192320Z 2000/2024 17008KT P6SM SCT030 BKN120
     FM201100 25005KT 6SM BR BKN025
     FM201500 VRB05KT P6SM SCT035 BKN300=



000
FTUS44 KLUB 192300
TAFCDS
TAF
KCDS 192320Z 2000/2024 17008KT P6SM SCT030 SCT110 BKN250
     FM200900 23005KT P6SM BKN250=



000
FTUS44 KLUB 192300
TAFCDS
TAF
KCDS 192320Z 2000/2024 17008KT P6SM SCT030 SCT110 BKN250
     FM200900 23005KT P6SM BKN250=



000
FTUS44 KLUB 192300
TAFLBB
TAF
KLBB 192320Z 2000/2024 17008KT P6SM SCT030 BKN120
     FM201100 25005KT 6SM BR BKN025
     FM201500 VRB05KT P6SM SCT035 BKN300=



    US Dept of Commerce
    National Oceanic and Atmospheric Administration
    National Weather Service
    1325 East West Highway
    Silver Spring, MD 20910
    Page Author: NWS Internet Services Team
Disclaimer
Information Quality
Credits
Glossary
Privacy Policy
Freedom of Information Act (FOIA)
About Us
Career Opportunities